sensor_id;sensor_type;location;lat;lon;timestamp;temperature;humidity
21891;DHT22;11110;52.386;16.940;2022-07-29T00:01:40;31.10;34.80
21891;DHT22;11110;52.386;16.940;2022-07-29T00:04:09;31.00;34.70
21891;DHT22;11110;52.386;16.940;2022-07-29T00:06:37;31.00;34.80
21891;DHT22;11110;52.386;16.940;2022-07-29T00:09:06;31.00;34.80
21891;DHT22;11110;52.386;16.940;2022-07-29T00:11:35;31.00;34.90
21891;DHT22;11110;52.386;16.940;2022-07-29T00:14:04;31.00;34.80
21891;DHT22;11110;52.386;16.940;2022-07-29T00:16:34;31.00;34.80
21891;DHT22;11110;52.386;16.940;2022-07-29T00:19:02;31.00;34.80
21891;DHT22;11110;52.386;16.940;2022-07-29T00:21:31;31.00;34.80
21891;DHT22;11110;52.386;16.940;2022-07-29T00:23:59;30.90;34.70
21891;DHT22;11110;52.386;16.940;2022-07-29T00:26:28;30.90;34.80
21891;DHT22;11110;52.386;16.940;2022-07-29T00:28:59;30.90;34.90
21891;DHT22;11110;52.386;16.940;2022-07-29T00:31:49;30.80;34.90
21891;DHT22;11110;52.386;16.940;2022-07-29T00:34:17;30.80;35.10
21891;DHT22;11110;52.386;16.940;2022-07-29T00:37:03;30.80;35.10
21891;DHT22;11110;52.386;16.940;2022-07-29T00:39:33;30.70;35.20
21891;DHT22;11110;52.386;16.940;2022-07-29T00:42:03;30.70;35.30
21891;DHT22;11110;52.386;16.940;2022-07-29T00:44:36;30.70;35.40
21891;DHT22;11110;52.386;16.940;2022-07-29T00:47:07;30.70;35.40
21891;DHT22;11110;52.386;16.940;2022-07-29T00:49:36;30.60;35.30
21891;DHT22;11110;52.386;16.940;2022-07-29T00:52:07;30.60;35.70
21891;DHT22;11110;52.386;16.940;2022-07-29T00:54:36;30.60;35.70
21891;DHT22;11110;52.386;16.940;2022-07-29T00:57:12;30.60;35.80
21891;DHT22;11110;52.386;16.940;2022-07-29T00:59:40;30.60;35.80
21891;DHT22;11110;52.386;16.940;2022-07-29T01:02:10;30.60;36.00
21891;DHT22;11110;52.386;16.940;2022-07-29T01:04:39;30.60;36.00
21891;DHT22;11110;52.386;16.940;2022-07-29T01:07:08;30.50;36.10
21891;DHT22;11110;52.386;16.940;2022-07-29T01:09:37;30.50;36.10
21891;DHT22;11110;52.386;16.940;2022-07-29T01:12:15;30.40;36.10
21891;DHT22;11110;52.386;16.940;2022-07-29T01:14:45;30.40;36.20
21891;DHT22;11110;52.386;16.940;2022-07-29T01:17:19;30.40;36.30
21891;DHT22;11110;52.386;16.940;2022-07-29T01:19:52;30.50;36.50
21891;DHT22;11110;52.386;16.940;2022-07-29T01:22:28;30.40;36.60
21891;DHT22;11110;52.386;16.940;2022-07-29T01:25:32;30.40;36.70
21891;DHT22;11110;52.386;16.940;2022-07-29T01:30:54;30.40;37.00
21891;DHT22;11110;52.386;16.940;2022-07-29T01:33:25;30.30;37.20
21891;DHT22;11110;52.386;16.940;2022-07-29T01:36:14;30.30;37.40
21891;DHT22;11110;52.386;16.940;2022-07-29T01:38:54;30.30;37.60
21891;DHT22;11110;52.386;16.940;2022-07-29T01:41:22;30.30;38.30
21891;DHT22;11110;52.386;16.940;2022-07-29T01:43:56;30.20;37.70
21891;DHT22;11110;52.386;16.940;2022-07-29T01:46:30;30.20;38.00
21891;DHT22;11110;52.386;16.940;2022-07-29T01:49:06;30.20;38.10
21891;DHT22;11110;52.386;16.940;2022-07-29T01:51:41;30.10;38.20
21891;DHT22;11110;52.386;16.940;2022-07-29T01:54:16;30.10;38.40
21891;DHT22;11110;52.386;16.940;2022-07-29T01:56:49;30.00;38.70
21891;DHT22;11110;52.386;16.940;2022-07-29T01:59:20;30.00;38.90
21891;DHT22;11110;52.386;16.940;2022-07-29T02:01:54;30.00;39.00
21891;DHT22;11110;52.386;16.940;2022-07-29T02:04:23;29.90;39.10
21891;DHT22;11110;52.386;16.940;2022-07-29T02:07:05;29.90;39.30
21891;DHT22;11110;52.386;16.940;2022-07-29T02:09:35;29.90;39.20
21891;DHT22;11110;52.386;16.940;2022-07-29T02:12:06;29.80;39.50
21891;DHT22;11110;52.386;16.940;2022-07-29T02:14:38;29.80;39.90
21891;DHT22;11110;52.386;16.940;2022-07-29T02:17:10;29.80;39.90
21891;DHT22;11110;52.386;16.940;2022-07-29T02:19:42;29.90;40.10
21891;DHT22;11110;52.386;16.940;2022-07-29T02:22:12;29.80;40.30
21891;DHT22;11110;52.386;16.940;2022-07-29T02:24:42;29.80;40.10
21891;DHT22;11110;52.386;16.940;2022-07-29T02:27:13;29.70;40.20
21891;DHT22;11110;52.386;16.940;2022-07-29T02:29:42;29.70;40.40
21891;DHT22;11110;52.386;16.940;2022-07-29T02:32:13;29.80;40.70
21891;DHT22;11110;52.386;16.940;2022-07-29T02:34:43;29.80;40.80
21891;DHT22;11110;52.386;16.940;2022-07-29T02:37:12;29.80;40.80
21891;DHT22;11110;52.386;16.940;2022-07-29T02:39:42;29.80;40.80
21891;DHT22;11110;52.386;16.940;2022-07-29T02:42:14;29.70;41.00
21891;DHT22;11110;52.386;16.940;2022-07-29T02:44:44;29.70;41.10
21891;DHT22;11110;52.386;16.940;2022-07-29T02:47:18;29.70;41.30
21891;DHT22;11110;52.386;16.940;2022-07-29T02:49:52;29.70;41.20
21891;DHT22;11110;52.386;16.940;2022-07-29T02:52:24;29.70;41.30
21891;DHT22;11110;52.386;16.940;2022-07-29T02:54:56;29.60;41.40
21891;DHT22;11110;52.386;16.940;2022-07-29T02:57:32;29.60;41.50
21891;DHT22;11110;52.386;16.940;2022-07-29T03:00:22;29.60;41.60
21891;DHT22;11110;52.386;16.940;2022-07-29T03:02:54;29.60;41.50
21891;DHT22;11110;52.386;16.940;2022-07-29T03:05:23;29.60;41.80
21891;DHT22;11110;52.386;16.940;2022-07-29T03:07:55;29.60;41.80
21891;DHT22;11110;52.386;16.940;2022-07-29T03:10:25;29.60;41.80
21891;DHT22;11110;52.386;16.940;2022-07-29T03:12:55;29.60;41.90
21891;DHT22;11110;52.386;16.940;2022-07-29T03:15:25;29.60;42.00
21891;DHT22;11110;52.386;16.940;2022-07-29T03:17:55;29.50;42.00
21891;DHT22;11110;52.386;16.940;2022-07-29T03:20:24;29.50;42.00
21891;DHT22;11110;52.386;16.940;2022-07-29T03:22:53;29.50;42.20
21891;DHT22;11110;52.386;16.940;2022-07-29T03:25:21;29.50;42.10
21891;DHT22;11110;52.386;16.940;2022-07-29T03:27:50;29.50;42.30
21891;DHT22;11110;52.386;16.940;2022-07-29T03:30:18;29.50;42.30
21891;DHT22;11110;52.386;16.940;2022-07-29T03:32:49;29.50;42.30
21891;DHT22;11110;52.386;16.940;2022-07-29T03:35:20;29.50;42.40
21891;DHT22;11110;52.386;16.940;2022-07-29T03:37:48;29.50;42.40
21891;DHT22;11110;52.386;16.940;2022-07-29T03:40:21;29.50;42.40
21891;DHT22;11110;52.386;16.940;2022-07-29T03:42:51;29.50;42.30
21891;DHT22;11110;52.386;16.940;2022-07-29T03:45:22;29.40;42.50
21891;DHT22;11110;52.386;16.940;2022-07-29T03:47:55;29.50;42.60
21891;DHT22;11110;52.386;16.940;2022-07-29T03:50:29;29.50;42.60
21891;DHT22;11110;52.386;16.940;2022-07-29T03:52:58;29.40;42.70
21891;DHT22;11110;52.386;16.940;2022-07-29T03:55:28;29.40;42.80
21891;DHT22;11110;52.386;16.940;2022-07-29T03:57:58;29.40;42.80
21891;DHT22;11110;52.386;16.940;2022-07-29T04:00:30;29.40;42.80
21891;DHT22;11110;52.386;16.940;2022-07-29T04:03:01;29.40;42.80
21891;DHT22;11110;52.386;16.940;2022-07-29T04:05:31;29.40;42.90
21891;DHT22;11110;52.386;16.940;2022-07-29T04:07:59;29.40;43.00
21891;DHT22;11110;52.386;16.940;2022-07-29T04:10:28;29.40;43.00
21891;DHT22;11110;52.386;16.940;2022-07-29T04:13:00;29.40;43.00
21891;DHT22;11110;52.386;16.940;2022-07-29T04:15:28;29.40;43.00
21891;DHT22;11110;52.386;16.940;2022-07-29T04:17:58;29.40;43.00
21891;DHT22;11110;52.386;16.940;2022-07-29T04:20:26;29.40;43.10
21891;DHT22;11110;52.386;16.940;2022-07-29T04:22:56;29.40;43.20
21891;DHT22;11110;52.386;16.940;2022-07-29T04:25:25;29.40;43.10
21891;DHT22;11110;52.386;16.940;2022-07-29T04:27:53;29.40;43.10
21891;DHT22;11110;52.386;16.940;2022-07-29T04:30:31;29.50;43.20
21891;DHT22;11110;52.386;16.940;2022-07-29T04:33:00;29.50;43.20
21891;DHT22;11110;52.386;16.940;2022-07-29T04:35:29;29.50;43.20
21891;DHT22;11110;52.386;16.940;2022-07-29T04:38:07;29.50;43.20
21891;DHT22;11110;52.386;16.940;2022-07-29T04:40:43;29.50;43.00
21891;DHT22;11110;52.386;16.940;2022-07-29T04:43:13;29.60;43.00
21891;DHT22;11110;52.386;16.940;2022-07-29T04:45:48;29.60;43.20
21891;DHT22;11110;52.386;16.940;2022-07-29T04:48:17;29.60;43.20
21891;DHT22;11110;52.386;16.940;2022-07-29T04:50:45;29.70;43.10
21891;DHT22;11110;52.386;16.940;2022-07-29T04:53:14;29.70;43.00
21891;DHT22;11110;52.386;16.940;2022-07-29T04:55:43;29.70;42.90
21891;DHT22;11110;52.386;16.940;2022-07-29T04:58:11;29.70;42.80
21891;DHT22;11110;52.386;16.940;2022-07-29T05:00:40;29.80;42.90
21891;DHT22;11110;52.386;16.940;2022-07-29T05:03:08;29.80;42.70
21891;DHT22;11110;52.386;16.940;2022-07-29T05:05:37;29.90;42.60
21891;DHT22;11110;52.386;16.940;2022-07-29T05:08:05;29.90;42.50
21891;DHT22;11110;52.386;16.940;2022-07-29T05:10:35;30.00;42.50
21891;DHT22;11110;52.386;16.940;2022-07-29T05:13:05;30.00;42.60
21891;DHT22;11110;52.386;16.940;2022-07-29T05:15:34;30.00;42.50
21891;DHT22;11110;52.386;16.940;2022-07-29T05:18:03;30.00;42.50
21891;DHT22;11110;52.386;16.940;2022-07-29T05:20:32;30.00;42.40
21891;DHT22;11110;52.386;16.940;2022-07-29T05:23:01;30.00;42.30
21891;DHT22;11110;52.386;16.940;2022-07-29T05:25:31;30.10;42.40
21891;DHT22;11110;52.386;16.940;2022-07-29T05:28:12;30.10;42.20
21891;DHT22;11110;52.386;16.940;2022-07-29T05:30:40;30.20;42.20
21891;DHT22;11110;52.386;16.940;2022-07-29T05:33:09;30.20;42.10
21891;DHT22;11110;52.386;16.940;2022-07-29T05:35:57;30.20;42.00
21891;DHT22;11110;52.386;16.940;2022-07-29T05:38:27;30.30;42.00
21891;DHT22;11110;52.386;16.940;2022-07-29T05:40:56;30.30;42.00
21891;DHT22;11110;52.386;16.940;2022-07-29T05:43:27;30.40;42.00
21891;DHT22;11110;52.386;16.940;2022-07-29T05:45:55;30.40;42.00
21891;DHT22;11110;52.386;16.940;2022-07-29T05:48:24;30.40;41.90
21891;DHT22;11110;52.386;16.940;2022-07-29T05:50:54;30.40;41.70
21891;DHT22;11110;52.386;16.940;2022-07-29T05:53:22;30.50;41.80
21891;DHT22;11110;52.386;16.940;2022-07-29T05:55:51;30.50;41.90
21891;DHT22;11110;52.386;16.940;2022-07-29T05:58:20;30.60;41.90
21891;DHT22;11110;52.386;16.940;2022-07-29T06:00:49;30.60;41.80
21891;DHT22;11110;52.386;16.940;2022-07-29T06:03:18;30.60;41.60
21891;DHT22;11110;52.386;16.940;2022-07-29T06:05:46;30.70;41.60
21891;DHT22;11110;52.386;16.940;2022-07-29T06:08:14;30.70;41.50
21891;DHT22;11110;52.386;16.940;2022-07-29T06:10:43;30.70;41.30
21891;DHT22;11110;52.386;16.940;2022-07-29T06:13:12;30.80;41.20
21891;DHT22;11110;52.386;16.940;2022-07-29T06:15:43;30.80;41.30
21891;DHT22;11110;52.386;16.940;2022-07-29T06:18:13;30.90;41.30
21891;DHT22;11110;52.386;16.940;2022-07-29T06:20:42;31.00;41.20
21891;DHT22;11110;52.386;16.940;2022-07-29T06:23:10;31.00;40.90
21891;DHT22;11110;52.386;16.940;2022-07-29T06:25:40;31.00;40.70
21891;DHT22;11110;52.386;16.940;2022-07-29T06:28:08;31.10;40.50
21891;DHT22;11110;52.386;16.940;2022-07-29T06:30:36;31.10;40.30
21891;DHT22;11110;52.386;16.940;2022-07-29T06:33:05;31.20;40.20
21891;DHT22;11110;52.386;16.940;2022-07-29T06:35:35;31.20;40.50
21891;DHT22;11110;52.386;16.940;2022-07-29T06:38:08;31.30;40.10
21891;DHT22;11110;52.386;16.940;2022-07-29T06:40:57;31.30;40.00
21891;DHT22;11110;52.386;16.940;2022-07-29T06:43:33;31.40;40.10
21891;DHT22;11110;52.386;16.940;2022-07-29T06:46:21;31.40;39.70
21891;DHT22;11110;52.386;16.940;2022-07-29T06:48:50;31.50;39.40
21891;DHT22;11110;52.386;16.940;2022-07-29T06:51:21;31.50;39.40
21891;DHT22;11110;52.386;16.940;2022-07-29T06:53:52;31.60;39.20
21891;DHT22;11110;52.386;16.940;2022-07-29T06:56:26;31.60;39.10
21891;DHT22;11110;52.386;16.940;2022-07-29T06:58:54;31.70;38.90
21891;DHT22;11110;52.386;16.940;2022-07-29T07:01:23;31.70;38.80
21891;DHT22;11110;52.386;16.940;2022-07-29T07:03:51;31.80;39.20
21891;DHT22;11110;52.386;16.940;2022-07-29T07:06:21;31.90;39.20
21891;DHT22;11110;52.386;16.940;2022-07-29T07:08:49;31.90;38.40
21891;DHT22;11110;52.386;16.940;2022-07-29T07:11:17;32.00;38.50
21891;DHT22;11110;52.386;16.940;2022-07-29T07:13:46;32.10;38.70
21891;DHT22;11110;52.386;16.940;2022-07-29T07:16:14;32.20;38.60
21891;DHT22;11110;52.386;16.940;2022-07-29T07:18:43;32.20;37.80
21891;DHT22;11110;52.386;16.940;2022-07-29T07:21:12;32.30;37.90
21891;DHT22;11110;52.386;16.940;2022-07-29T07:23:46;32.40;37.90
21891;DHT22;11110;52.386;16.940;2022-07-29T07:26:15;32.50;37.60
21891;DHT22;11110;52.386;16.940;2022-07-29T07:28:43;32.60;36.90
21891;DHT22;11110;52.386;16.940;2022-07-29T07:31:11;32.60;36.70
21891;DHT22;11110;52.386;16.940;2022-07-29T07:33:41;32.70;37.00
21891;DHT22;11110;52.386;16.940;2022-07-29T07:36:09;32.70;37.00
21891;DHT22;11110;52.386;16.940;2022-07-29T07:38:38;32.80;37.00
21891;DHT22;11110;52.386;16.940;2022-07-29T07:41:07;32.90;36.40
21891;DHT22;11110;52.386;16.940;2022-07-29T07:43:36;33.00;36.70
21891;DHT22;11110;52.386;16.940;2022-07-29T07:46:04;33.00;36.30
21891;DHT22;11110;52.386;16.940;2022-07-29T07:48:33;33.10;36.60
21891;DHT22;11110;52.386;16.940;2022-07-29T07:51:02;33.20;36.10
21891;DHT22;11110;52.386;16.940;2022-07-29T07:53:30;33.30;35.90
21891;DHT22;11110;52.386;16.940;2022-07-29T07:55:59;33.30;36.50
21891;DHT22;11110;52.386;16.940;2022-07-29T07:58:44;33.30;36.30
21891;DHT22;11110;52.386;16.940;2022-07-29T08:01:12;33.40;36.30
21891;DHT22;11110;52.386;16.940;2022-07-29T08:03:41;33.50;36.40
21891;DHT22;11110;52.386;16.940;2022-07-29T08:06:09;33.50;36.20
21891;DHT22;11110;52.386;16.940;2022-07-29T08:08:38;33.60;36.00
21891;DHT22;11110;52.386;16.940;2022-07-29T08:11:06;33.60;35.40
21891;DHT22;11110;52.386;16.940;2022-07-29T08:13:36;33.70;36.00
21891;DHT22;11110;52.386;16.940;2022-07-29T08:16:07;33.70;35.30
21891;DHT22;11110;52.386;16.940;2022-07-29T08:18:41;33.80;35.00
21891;DHT22;11110;52.386;16.940;2022-07-29T08:21:11;33.80;34.90
21891;DHT22;11110;52.386;16.940;2022-07-29T08:23:42;33.80;34.80
21891;DHT22;11110;52.386;16.940;2022-07-29T08:26:25;33.90;35.50
21891;DHT22;11110;52.386;16.940;2022-07-29T08:28:53;33.90;34.70
21891;DHT22;11110;52.386;16.940;2022-07-29T08:31:23;34.00;34.60
21891;DHT22;11110;52.386;16.940;2022-07-29T08:33:52;34.10;34.30
21891;DHT22;11110;52.386;16.940;2022-07-29T08:36:20;34.10;35.20
21891;DHT22;11110;52.386;16.940;2022-07-29T08:38:49;34.10;34.40
21891;DHT22;11110;52.386;16.940;2022-07-29T08:41:18;34.20;34.60
21891;DHT22;11110;52.386;16.940;2022-07-29T08:43:46;34.20;34.00
21891;DHT22;11110;52.386;16.940;2022-07-29T08:46:15;34.20;33.80
21891;DHT22;11110;52.386;16.940;2022-07-29T08:48:46;34.30;33.90
21891;DHT22;11110;52.386;16.940;2022-07-29T08:51:18;34.30;34.20
21891;DHT22;11110;52.386;16.940;2022-07-29T08:53:48;34.30;34.50
21891;DHT22;11110;52.386;16.940;2022-07-29T08:56:18;34.30;34.20
21891;DHT22;11110;52.386;16.940;2022-07-29T08:58:48;34.40;33.90
21891;DHT22;11110;52.386;16.940;2022-07-29T09:01:24;34.40;33.80
21891;DHT22;11110;52.386;16.940;2022-07-29T09:04:11;34.50;33.90
21891;DHT22;11110;52.386;16.940;2022-07-29T09:06:44;34.50;33.10
21891;DHT22;11110;52.386;16.940;2022-07-29T09:09:13;34.50;33.10
21891;DHT22;11110;52.386;16.940;2022-07-29T09:11:42;34.50;33.30
21891;DHT22;11110;52.386;16.940;2022-07-29T09:14:12;34.50;33.50
21891;DHT22;11110;52.386;16.940;2022-07-29T09:16:50;34.60;33.40
21891;DHT22;11110;52.386;16.940;2022-07-29T09:19:27;34.60;33.50
21891;DHT22;11110;52.386;16.940;2022-07-29T09:21:58;34.60;33.20
21891;DHT22;11110;52.386;16.940;2022-07-29T09:24:38;34.60;33.20
21891;DHT22;11110;52.386;16.940;2022-07-29T09:27:25;34.80;33.60
21891;DHT22;11110;52.386;16.940;2022-07-29T09:29:58;34.80;33.20
21891;DHT22;11110;52.386;16.940;2022-07-29T09:32:27;34.80;32.90
21891;DHT22;11110;52.386;16.940;2022-07-29T09:35:17;34.80;33.20
21891;DHT22;11110;52.386;16.940;2022-07-29T09:37:46;34.90;32.80
21891;DHT22;11110;52.386;16.940;2022-07-29T09:40:16;34.90;32.60
21891;DHT22;11110;52.386;16.940;2022-07-29T09:42:45;35.00;32.00
21891;DHT22;11110;52.386;16.940;2022-07-29T09:45:27;35.10;32.10
21891;DHT22;11110;52.386;16.940;2022-07-29T09:47:56;35.10;32.00
21891;DHT22;11110;52.386;16.940;2022-07-29T09:50:39;35.10;32.40
21891;DHT22;11110;52.386;16.940;2022-07-29T09:53:08;35.10;32.00
21891;DHT22;11110;52.386;16.940;2022-07-29T09:55:47;35.10;31.80
21891;DHT22;11110;52.386;16.940;2022-07-29T09:58:20;35.20;31.30
21891;DHT22;11110;52.386;16.940;2022-07-29T10:00:50;35.20;31.80
21891;DHT22;11110;52.386;16.940;2022-07-29T10:03:19;35.20;31.80
21891;DHT22;11110;52.386;16.940;2022-07-29T10:08:44;35.20;31.20
21891;DHT22;11110;52.386;16.940;2022-07-29T10:11:14;35.20;31.20
21891;DHT22;11110;52.386;16.940;2022-07-29T10:13:44;35.30;31.40
21891;DHT22;11110;52.386;16.940;2022-07-29T10:16:14;35.20;30.80
21891;DHT22;11110;52.386;16.940;2022-07-29T10:18:43;35.20;30.90
21891;DHT22;11110;52.386;16.940;2022-07-29T10:24:06;35.20;31.10
21891;DHT22;11110;52.386;16.940;2022-07-29T10:26:41;35.30;31.10
21891;DHT22;11110;52.386;16.940;2022-07-29T10:29:10;35.20;31.70
21891;DHT22;11110;52.386;16.940;2022-07-29T10:31:47;35.20;31.10
21891;DHT22;11110;52.386;16.940;2022-07-29T10:34:23;35.30;31.30
21891;DHT22;11110;52.386;16.940;2022-07-29T10:36:59;35.30;31.00
21891;DHT22;11110;52.386;16.940;2022-07-29T10:39:42;35.30;31.70
21891;DHT22;11110;52.386;16.940;2022-07-29T10:42:18;35.30;31.20
21891;DHT22;11110;52.386;16.940;2022-07-29T10:45:00;35.30;30.40
21891;DHT22;11110;52.386;16.940;2022-07-29T10:47:30;35.40;31.00
21891;DHT22;11110;52.386;16.940;2022-07-29T10:50:03;35.50;31.10
21891;DHT22;11110;52.386;16.940;2022-07-29T10:52:53;35.60;30.10
21891;DHT22;11110;52.386;16.940;2022-07-29T10:55:32;35.70;30.00
21891;DHT22;11110;52.386;16.940;2022-07-29T10:58:12;35.80;30.70
21891;DHT22;11110;52.386;16.940;2022-07-29T11:00:44;35.90;30.30
21891;DHT22;11110;52.386;16.940;2022-07-29T11:03:44;35.90;30.20
21891;DHT22;11110;52.386;16.940;2022-07-29T11:06:17;36.00;29.90
21891;DHT22;11110;52.386;16.940;2022-07-29T11:09:16;35.90;29.50
21891;DHT22;11110;52.386;16.940;2022-07-29T11:11:48;36.10;29.90
21891;DHT22;11110;52.386;16.940;2022-07-29T11:14:54;36.10;29.60
21891;DHT22;11110;52.386;16.940;2022-07-29T11:17:24;36.30;29.90
21891;DHT22;11110;52.386;16.940;2022-07-29T11:23:22;36.40;29.50
21891;DHT22;11110;52.386;16.940;2022-07-29T11:26:13;36.40;29.70
21891;DHT22;11110;52.386;16.940;2022-07-29T11:28:57;36.50;29.60
21891;DHT22;11110;52.386;16.940;2022-07-29T11:31:34;36.50;28.70
21891;DHT22;11110;52.386;16.940;2022-07-29T11:34:25;36.60;29.20
21891;DHT22;11110;52.386;16.940;2022-07-29T11:37:20;36.70;29.30
21891;DHT22;11110;52.386;16.940;2022-07-29T11:40:17;36.70;29.30
21891;DHT22;11110;52.386;16.940;2022-07-29T11:42:48;36.80;29.30
21891;DHT22;11110;52.386;16.940;2022-07-29T11:45:22;36.80;28.80
21891;DHT22;11110;52.386;16.940;2022-07-29T11:48:16;36.90;28.30
21891;DHT22;11110;52.386;16.940;2022-07-29T11:51:09;37.00;28.70
21891;DHT22;11110;52.386;16.940;2022-07-29T11:53:39;37.00;28.80
21891;DHT22;11110;52.386;16.940;2022-07-29T11:56:08;37.00;28.90
21891;DHT22;11110;52.386;16.940;2022-07-29T11:58:42;37.10;27.80
21891;DHT22;11110;52.386;16.940;2022-07-29T12:01:17;37.10;28.40
21891;DHT22;11110;52.386;16.940;2022-07-29T12:03:45;37.20;28.00
21891;DHT22;11110;52.386;16.940;2022-07-29T12:06:14;37.10;28.10
21891;DHT22;11110;52.386;16.940;2022-07-29T12:08:44;37.20;27.40
21891;DHT22;11110;52.386;16.940;2022-07-29T12:11:17;37.10;27.70
21891;DHT22;11110;52.386;16.940;2022-07-29T12:13:50;37.10;28.20
21891;DHT22;11110;52.386;16.940;2022-07-29T12:16:20;37.20;28.80
21891;DHT22;11110;52.386;16.940;2022-07-29T12:18:57;37.20;28.30
21891;DHT22;11110;52.386;16.940;2022-07-29T12:21:25;37.30;27.60
21891;DHT22;11110;52.386;16.940;2022-07-29T12:23:56;37.40;27.90
21891;DHT22;11110;52.386;16.940;2022-07-29T12:26:35;37.50;27.60
21891;DHT22;11110;52.386;16.940;2022-07-29T12:29:06;37.50;27.80
21891;DHT22;11110;52.386;16.940;2022-07-29T12:31:43;37.50;27.30
21891;DHT22;11110;52.386;16.940;2022-07-29T12:34:15;37.60;27.10
21891;DHT22;11110;52.386;16.940;2022-07-29T12:36:43;37.70;27.20
21891;DHT22;11110;52.386;16.940;2022-07-29T12:39:12;37.70;27.20
21891;DHT22;11110;52.386;16.940;2022-07-29T12:41:41;37.70;27.00
21891;DHT22;11110;52.386;16.940;2022-07-29T12:44:10;37.70;27.10
21891;DHT22;11110;52.386;16.940;2022-07-29T12:46:38;37.80;26.60
21891;DHT22;11110;52.386;16.940;2022-07-29T12:49:08;37.80;26.40
21891;DHT22;11110;52.386;16.940;2022-07-29T12:51:39;37.90;27.00
21891;DHT22;11110;52.386;16.940;2022-07-29T12:54:09;37.90;27.40
21891;DHT22;11110;52.386;16.940;2022-07-29T12:56:38;38.00;27.10
21891;DHT22;11110;52.386;16.940;2022-07-29T12:59:15;38.10;26.90
21891;DHT22;11110;52.386;16.940;2022-07-29T13:01:44;38.20;26.50
21891;DHT22;11110;52.386;16.940;2022-07-29T13:04:25;38.20;27.30
21891;DHT22;11110;52.386;16.940;2022-07-29T13:07:04;38.30;27.40
21891;DHT22;11110;52.386;16.940;2022-07-29T13:09:39;38.30;26.40
21891;DHT22;11110;52.386;16.940;2022-07-29T13:12:09;38.30;26.10
21891;DHT22;11110;52.386;16.940;2022-07-29T13:14:39;38.30;25.90
21891;DHT22;11110;52.386;16.940;2022-07-29T13:17:09;38.30;26.00
21891;DHT22;11110;52.386;16.940;2022-07-29T13:19:40;38.30;25.90
21891;DHT22;11110;52.386;16.940;2022-07-29T13:22:10;38.40;26.00
21891;DHT22;11110;52.386;16.940;2022-07-29T13:24:48;38.40;25.60
21891;DHT22;11110;52.386;16.940;2022-07-29T13:27:19;38.40;26.00
21891;DHT22;11110;52.386;16.940;2022-07-29T13:29:48;38.40;25.90
21891;DHT22;11110;52.386;16.940;2022-07-29T13:32:18;38.40;25.90
21891;DHT22;11110;52.386;16.940;2022-07-29T13:34:56;38.40;25.50
21891;DHT22;11110;52.386;16.940;2022-07-29T13:37:25;38.30;25.50
21891;DHT22;11110;52.386;16.940;2022-07-29T13:39:57;38.30;25.70
21891;DHT22;11110;52.386;16.940;2022-07-29T13:42:26;38.30;25.50
21891;DHT22;11110;52.386;16.940;2022-07-29T13:44:54;38.30;26.30
21891;DHT22;11110;52.386;16.940;2022-07-29T13:47:23;38.30;25.80
21891;DHT22;11110;52.386;16.940;2022-07-29T13:50:00;38.30;26.00
21891;DHT22;11110;52.386;16.940;2022-07-29T13:52:29;38.30;26.50
21891;DHT22;11110;52.386;16.940;2022-07-29T13:54:57;38.30;26.40
21891;DHT22;11110;52.386;16.940;2022-07-29T13:57:26;38.30;25.90
21891;DHT22;11110;52.386;16.940;2022-07-29T13:59:55;38.40;25.70
21891;DHT22;11110;52.386;16.940;2022-07-29T14:02:24;38.40;26.50
21891;DHT22;11110;52.386;16.940;2022-07-29T14:04:52;38.50;26.20
21891;DHT22;11110;52.386;16.940;2022-07-29T14:07:23;38.50;26.80
21891;DHT22;11110;52.386;16.940;2022-07-29T14:09:51;38.60;25.90
21891;DHT22;11110;52.386;16.940;2022-07-29T14:12:19;38.60;26.50
21891;DHT22;11110;52.386;16.940;2022-07-29T14:14:48;38.70;26.60
21891;DHT22;11110;52.386;16.940;2022-07-29T14:17:16;38.80;26.10
21891;DHT22;11110;52.386;16.940;2022-07-29T14:19:44;38.90;26.60
21891;DHT22;11110;52.386;16.940;2022-07-29T14:22:13;39.00;26.70
21891;DHT22;11110;52.386;16.940;2022-07-29T14:24:43;39.10;25.20
21891;DHT22;11110;52.386;16.940;2022-07-29T14:27:12;39.20;25.90
21891;DHT22;11110;52.386;16.940;2022-07-29T14:29:41;39.20;25.70
21891;DHT22;11110;52.386;16.940;2022-07-29T14:32:09;39.20;26.20
21891;DHT22;11110;52.386;16.940;2022-07-29T14:34:38;39.30;25.70
21891;DHT22;11110;52.386;16.940;2022-07-29T14:37:07;39.40;25.20
21891;DHT22;11110;52.386;16.940;2022-07-29T14:39:43;39.40;26.00
21891;DHT22;11110;52.386;16.940;2022-07-29T14:42:12;39.50;25.90
21891;DHT22;11110;52.386;16.940;2022-07-29T14:44:40;39.60;25.30
21891;DHT22;11110;52.386;16.940;2022-07-29T14:47:10;39.70;26.00
21891;DHT22;11110;52.386;16.940;2022-07-29T14:49:39;39.70;25.60
21891;DHT22;11110;52.386;16.940;2022-07-29T14:52:07;39.70;25.90
21891;DHT22;11110;52.386;16.940;2022-07-29T14:54:35;39.80;25.70
21891;DHT22;11110;52.386;16.940;2022-07-29T14:57:05;39.90;25.80
21891;DHT22;11110;52.386;16.940;2022-07-29T14:59:34;39.90;26.30
21891;DHT22;11110;52.386;16.940;2022-07-29T15:02:02;40.00;26.90
21891;DHT22;11110;52.386;16.940;2022-07-29T15:04:31;40.00;25.70
21891;DHT22;11110;52.386;16.940;2022-07-29T15:07:00;40.10;24.30
21891;DHT22;11110;52.386;16.940;2022-07-29T15:09:28;40.10;24.60
21891;DHT22;11110;52.386;16.940;2022-07-29T15:11:57;40.10;24.20
21891;DHT22;11110;52.386;16.940;2022-07-29T15:14:27;40.00;25.20
21891;DHT22;11110;52.386;16.940;2022-07-29T15:16:55;40.00;26.00
21891;DHT22;11110;52.386;16.940;2022-07-29T15:19:24;40.00;25.90
21891;DHT22;11110;52.386;16.940;2022-07-29T15:21:53;40.00;24.40
21891;DHT22;11110;52.386;16.940;2022-07-29T15:24:26;40.00;24.50
21891;DHT22;11110;52.386;16.940;2022-07-29T15:26:54;40.00;25.90
21891;DHT22;11110;52.386;16.940;2022-07-29T15:29:23;40.00;26.60
21891;DHT22;11110;52.386;16.940;2022-07-29T15:31:53;40.00;25.10
21891;DHT22;11110;52.386;16.940;2022-07-29T15:34:22;40.10;25.20
21891;DHT22;11110;52.386;16.940;2022-07-29T15:36:51;40.10;24.80
21891;DHT22;11110;52.386;16.940;2022-07-29T15:39:21;40.10;26.00
21891;DHT22;11110;52.386;16.940;2022-07-29T15:41:49;40.20;25.80
21891;DHT22;11110;52.386;16.940;2022-07-29T15:44:18;40.30;25.30
21891;DHT22;11110;52.386;16.940;2022-07-29T15:46:47;40.30;24.80
21891;DHT22;11110;52.386;16.940;2022-07-29T15:49:34;40.30;24.90
21891;DHT22;11110;52.386;16.940;2022-07-29T15:52:16;40.30;24.40
21891;DHT22;11110;52.386;16.940;2022-07-29T15:54:53;40.30;24.30
21891;DHT22;11110;52.386;16.940;2022-07-29T15:57:23;40.20;23.80